Terminal Aerodrome Forecast
Issued by NWS Mt. Holly, NJ

Home | Current Version | Previous Version | Text Only | Print | Product List | Glossary On
Versions: 1 2 3 4 5 6 7 8 9 10 11 12 13 14 15 16 17 18 19 20 21 22 23 24 25 26 27 28 29 30 31 32 33 34 35 36 37 38 39 40 41 42
000
FTAK31 PANC 150542
TAFABE
TAF
PABE 150542Z 1506/1606 05010KT P6SM -SHSN FEW004 BKN025 OVC040
     FM151300 05016G24KT P6SM SCT020 BKN050 BKN100
     FM152200 13015KT 6SM -SHSN BKN025 OVC050
     FM160000 15017KT 3SM -SHSN BKN015 OVC025=

USA.gov is the U.S. government's official web portal to all federal, state and local government web resources and services.